createdAt,value
2019-01-11T00:01:36.365Z,1.27
2019-01-11T00:04:24.582Z,1.30
2019-01-11T00:07:11.728Z,1.67
2019-01-11T00:09:59.651Z,1.57
2019-01-11T00:12:48.828Z,1.70
2019-01-11T00:15:36.337Z,1.23
2019-01-11T00:18:24.317Z,1.30
2019-01-11T00:21:11.807Z,1.63
2019-01-11T00:23:59.432Z,1.70
2019-01-11T00:26:46.345Z,1.57
2019-01-11T00:29:33.857Z,1.50
2019-01-11T00:32:22.934Z,2.00
2019-01-11T00:35:10.347Z,1.80
2019-01-11T00:37:58.070Z,1.23
2019-01-11T00:40:45.583Z,1.40
2019-01-11T00:43:33.665Z,1.70
2019-01-11T00:46:21.445Z,1.63
2019-01-11T00:49:13.536Z,1.80
2019-01-11T00:51:58.029Z,1.70
2019-01-11T00:54:46.672Z,1.67
2019-01-11T00:57:34.409Z,1.70
2019-01-11T01:00:22.532Z,1.70
2019-01-11T01:03:09.881Z,1.70
2019-01-11T01:05:57.414Z,1.67
2019-01-11T01:08:44.961Z,1.63
2019-01-11T01:11:33.060Z,1.60
2019-01-11T01:14:20.481Z,1.67
2019-01-11T01:17:07.963Z,1.63
2019-01-11T01:19:56.714Z,1.37
2019-01-11T01:22:43.814Z,1.67
2019-01-11T01:25:32.454Z,1.70
2019-01-11T01:28:21.606Z,1.70
2019-01-11T01:31:10.403Z,1.60
2019-01-11T01:33:58.623Z,1.60
2019-01-11T01:36:46.392Z,1.73
2019-01-11T01:39:35.306Z,1.67
2019-01-11T01:42:22.982Z,1.60
2019-01-11T01:45:11.648Z,1.60
2019-01-11T01:47:59.132Z,1.50
2019-01-11T01:50:46.965Z,1.50
2019-01-11T01:53:34.678Z,1.50
2019-01-11T01:56:22.192Z,1.30
2019-01-11T01:59:10.122Z,1.13
2019-01-11T02:01:58.751Z,1.20
2019-01-11T02:04:46.830Z,1.10
2019-01-11T02:07:34.137Z,1.40
2019-01-11T02:10:21.483Z,1.50
2019-01-11T02:13:11.395Z,1.50
2019-01-11T02:15:59.083Z,1.27
2019-01-11T02:18:47.773Z,1.00
2019-01-11T02:21:35.231Z,1.27
2019-01-11T02:24:23.877Z,1.30
2019-01-11T02:27:12.820Z,1.23
2019-01-11T02:30:00.219Z,1.13
2019-01-11T02:32:52.411Z,1.27
2019-01-11T02:35:36.477Z,1.00
2019-01-11T02:38:24.220Z,1.17
2019-01-11T02:41:11.922Z,1.30
2019-01-11T02:43:59.799Z,1.20
2019-01-11T02:46:47.609Z,0.90
2019-01-11T02:49:40.021Z,1.03
2019-01-11T02:52:23.856Z,1.10
2019-01-11T02:55:12.819Z,0.97
2019-01-11T02:58:00.254Z,0.90
2019-01-11T03:00:48.816Z,0.90
2019-01-11T03:03:37.958Z,0.90
2019-01-11T03:06:25.423Z,0.87
2019-01-11T03:09:12.685Z,0.97
2019-01-11T03:12:01.813Z,1.20
2019-01-11T03:14:49.529Z,0.77
2019-01-11T03:17:36.708Z,1.03
2019-01-11T03:20:24.580Z,1.00
2019-01-11T03:23:12.722Z,0.87
2019-01-11T03:26:00.501Z,1.10
2019-01-11T03:28:47.819Z,1.00
2019-01-11T03:31:37.820Z,1.10
2019-01-11T03:34:25.413Z,1.00
2019-01-11T03:37:12.997Z,0.83
2019-01-11T03:40:01.793Z,0.80
2019-01-11T03:42:49.831Z,0.83
2019-01-11T03:45:37.359Z,0.80
2019-01-11T03:48:26.465Z,0.90
2019-01-11T03:51:14.941Z,1.10
2019-01-11T03:54:02.736Z,1.20
2019-01-11T03:56:50.275Z,0.80
2019-01-11T03:59:38.308Z,0.70
2019-01-11T04:02:26.794Z,0.90
2019-01-11T04:05:14.361Z,0.70
2019-01-11T04:08:02.067Z,0.87
2019-01-11T04:10:49.784Z,0.80
2019-01-11T04:13:38.857Z,0.70
2019-01-11T04:16:26.560Z,1.00
2019-01-11T04:19:15.890Z,0.90
2019-01-11T04:22:23.961Z,0.80
2019-01-11T04:25:17.296Z,0.80
2019-01-11T04:28:05.401Z,0.90
2019-01-11T04:30:53.106Z,0.80
2019-01-11T04:33:42.646Z,0.70
2019-01-11T04:36:31.207Z,0.80
2019-01-11T04:39:19.184Z,0.63
2019-01-11T04:42:07.207Z,0.83
2019-01-11T04:44:54.917Z,1.10
2019-01-11T04:47:42.777Z,1.20
2019-01-11T04:50:30.570Z,0.90
2019-01-11T04:53:19.596Z,0.90
2019-01-11T04:56:08.012Z,0.70
2019-01-11T04:58:55.440Z,0.80
2019-01-11T05:01:43.229Z,0.90
2019-01-11T05:04:30.586Z,0.70
2019-01-11T05:07:20.417Z,0.80
2019-01-11T05:10:08.376Z,0.80
2019-01-11T05:12:58.531Z,0.50
2019-01-11T05:15:45.671Z,0.77
2019-01-11T05:18:33.113Z,0.80
2019-01-11T05:21:20.950Z,0.70
2019-01-11T05:24:08.722Z,0.70
2019-01-11T05:26:56.584Z,0.77
2019-01-11T05:29:44.237Z,0.80
2019-01-11T05:32:31.931Z,0.87
2019-01-11T05:35:19.125Z,0.80
2019-01-11T05:38:06.622Z,0.80
2019-01-11T05:40:54.579Z,0.90
2019-01-11T05:43:41.958Z,0.80
2019-01-11T05:46:29.740Z,0.83
2019-01-11T05:49:17.869Z,0.80
2019-01-11T05:52:05.407Z,0.90
2019-01-11T05:54:54.098Z,0.80
2019-01-11T05:58:00.767Z,0.90
2019-01-11T06:00:47.654Z,1.00
2019-01-11T06:03:36.094Z,1.10
2019-01-11T06:06:25.083Z,1.17
2019-01-11T06:09:12.605Z,1.00
2019-01-11T06:12:00.002Z,0.83
2019-01-11T06:14:47.939Z,1.20
2019-01-11T06:17:35.414Z,1.00
2019-01-11T06:20:23.319Z,0.97
2019-01-11T06:23:11.150Z,1.00
2019-01-11T06:25:58.845Z,0.90
2019-01-11T06:28:46.215Z,1.13
2019-01-11T06:31:34.029Z,1.00
2019-01-11T06:34:21.476Z,1.17
2019-01-11T06:37:09.236Z,1.17
2019-01-11T06:39:56.849Z,1.00
2019-01-11T06:42:44.595Z,1.10
2019-01-11T06:45:32.278Z,1.00
2019-01-11T06:48:39.319Z,1.03
2019-01-11T06:51:26.191Z,0.83
2019-01-11T06:54:13.366Z,1.20
2019-01-11T06:57:01.133Z,1.30
2019-01-11T06:59:48.656Z,0.80
2019-01-11T07:02:36.037Z,0.90
2019-01-11T07:05:23.136Z,1.20
2019-01-11T07:08:10.595Z,1.20
2019-01-11T07:10:58.004Z,0.97
2019-01-11T07:13:45.676Z,1.10
2019-01-11T07:16:33.107Z,1.07
2019-01-11T07:19:20.897Z,1.10
2019-01-11T07:22:08.112Z,1.20
2019-01-11T07:24:55.850Z,1.17
2019-01-11T07:27:49.008Z,1.10
2019-01-11T07:30:53.413Z,1.53
2019-01-11T07:33:41.065Z,1.23
2019-01-11T07:36:29.882Z,1.00
2019-01-11T07:39:30.937Z,1.10
2019-01-11T07:42:18.514Z,1.20
2019-01-11T07:45:06.375Z,1.10
2019-01-11T07:47:53.965Z,1.30
2019-01-11T07:50:41.183Z,1.30
2019-01-11T07:53:29.064Z,1.20
2019-01-11T07:56:16.794Z,1.27
2019-01-11T07:59:04.443Z,1.00
2019-01-11T08:01:51.911Z,1.47
2019-01-11T08:04:39.840Z,1.57
2019-01-11T08:07:27.564Z,1.30
2019-01-11T08:10:15.382Z,1.20
2019-01-11T08:13:03.142Z,1.50
2019-01-11T08:15:50.790Z,1.20
2019-01-11T08:18:38.555Z,1.20
2019-01-11T08:21:26.205Z,1.00
2019-01-11T08:24:14.159Z,1.10
2019-01-11T08:27:01.808Z,1.10
2019-01-11T08:29:49.259Z,1.20
2019-01-11T08:32:37.085Z,1.47
2019-01-11T08:35:24.712Z,1.00
2019-01-11T08:38:12.525Z,1.07
2019-01-11T08:41:00.338Z,1.00
2019-01-11T08:43:48.297Z,0.90
2019-01-11T08:46:36.219Z,1.00
2019-01-11T08:49:23.713Z,1.40
2019-01-11T08:52:11.224Z,1.13
2019-01-11T08:54:58.909Z,1.00
2019-01-11T08:57:46.526Z,1.53
2019-01-11T09:00:34.111Z,3.17
2019-01-11T09:03:21.933Z,1.10
2019-01-11T09:06:09.844Z,0.87
2019-01-11T09:08:59.657Z,0.60
2019-01-11T09:11:46.730Z,0.80
2019-01-11T09:14:51.736Z,0.90
2019-01-11T09:18:10.462Z,0.90
2019-01-11T09:20:57.846Z,0.80
2019-01-11T09:23:45.353Z,0.90
2019-01-11T09:26:33.069Z,0.67
2019-01-11T09:29:20.923Z,0.80
2019-01-11T09:32:08.397Z,0.87
2019-01-11T09:34:56.167Z,0.70
2019-01-11T09:37:43.357Z,0.80
2019-01-11T09:40:30.904Z,0.90
2019-01-11T09:43:18.560Z,0.67
2019-01-11T09:46:06.049Z,0.70
2019-01-11T09:48:53.794Z,0.73
2019-01-11T09:51:42.337Z,0.80
2019-01-11T09:54:30.132Z,0.90
2019-01-11T09:57:17.760Z,0.73
2019-01-11T10:00:06.651Z,0.70
2019-01-11T10:02:59.261Z,0.60
2019-01-11T10:05:46.909Z,0.60
2019-01-11T10:08:34.287Z,0.60
2019-01-11T10:11:21.849Z,0.63
2019-01-11T10:14:09.811Z,0.50
2019-01-11T10:16:57.779Z,1.03
2019-01-11T10:19:45.465Z,0.70
2019-01-11T10:22:33.165Z,0.70
2019-01-11T10:25:21.297Z,0.70
2019-01-11T10:28:08.972Z,0.87
2019-01-11T10:31:00.702Z,0.70
2019-01-11T10:33:45.390Z,0.97
2019-01-11T10:36:33.033Z,0.90
2019-01-11T10:39:21.136Z,0.77
2019-01-11T10:42:08.269Z,1.00
2019-01-11T10:44:55.876Z,0.80
2019-01-11T10:47:44.381Z,1.00
2019-01-11T10:50:32.329Z,0.70
2019-01-11T10:53:20.092Z,0.80
2019-01-11T10:56:07.414Z,0.90
2019-01-11T10:58:55.200Z,0.50
2019-01-11T11:01:42.765Z,1.87
2019-01-11T11:04:30.503Z,1.10
2019-01-11T11:07:17.944Z,0.90
2019-01-11T11:10:05.465Z,0.93
2019-01-11T11:12:53.360Z,0.90
2019-01-11T11:15:45.525Z,1.10
2019-01-11T11:18:33.107Z,0.97
2019-01-11T11:21:20.861Z,0.97
2019-01-11T11:24:08.741Z,1.10
2019-01-11T11:26:56.605Z,0.80
2019-01-11T11:29:44.453Z,0.80
2019-01-11T11:33:03.019Z,0.70
2019-01-11T11:35:50.128Z,1.17
2019-01-11T11:38:37.189Z,1.00
2019-01-11T11:41:25.061Z,1.13
2019-01-11T11:44:12.752Z,1.17
2019-01-11T11:47:00.557Z,1.30
2019-01-11T11:49:47.929Z,0.70
2019-01-11T11:52:35.566Z,0.63
2019-01-11T11:55:22.939Z,0.70
2019-01-11T11:58:10.519Z,0.90
2019-01-11T12:00:58.061Z,0.57
2019-01-11T12:03:45.807Z,0.70
2019-01-11T12:06:33.375Z,0.90
2019-01-11T12:09:21.270Z,0.83
2019-01-11T12:12:09.057Z,0.60
2019-01-11T12:14:56.994Z,0.63
2019-01-11T12:17:44.324Z,0.70
2019-01-11T12:20:33.558Z,0.60
2019-01-11T12:23:21.125Z,0.70
2019-01-11T12:26:08.462Z,0.80
2019-01-11T12:28:55.946Z,0.60
2019-01-11T12:31:43.519Z,0.60
2019-01-11T12:34:30.800Z,0.70
2019-01-11T12:37:18.097Z,0.83
2019-01-11T12:40:06.065Z,0.60
2019-01-11T12:42:53.755Z,0.67
2019-01-11T12:45:41.486Z,0.63
2019-01-11T12:48:29.329Z,0.40
2019-01-11T12:51:16.855Z,0.47
2019-01-11T12:54:04.109Z,0.50
2019-01-11T12:56:51.981Z,0.40
2019-01-11T12:59:39.272Z,0.60
2019-01-11T13:02:26.750Z,0.50
2019-01-11T13:05:15.747Z,0.70
2019-01-11T13:08:03.053Z,0.40
2019-01-11T13:10:50.255Z,0.47
2019-01-11T13:13:37.742Z,0.80
2019-01-11T13:16:24.783Z,0.43
2019-01-11T13:19:12.351Z,0.50
2019-01-11T13:22:00.619Z,0.30
2019-01-11T13:24:48.763Z,0.50
2019-01-11T13:27:36.347Z,0.40
2019-01-11T13:30:24.343Z,0.40
2019-01-11T13:33:12.005Z,0.50
2019-01-11T13:35:59.778Z,0.43
2019-01-11T13:38:47.584Z,0.40
2019-01-11T13:41:35.431Z,0.50
2019-01-11T13:44:22.771Z,0.50
2019-01-11T13:47:10.487Z,0.40
2019-01-11T13:49:57.860Z,0.63
2019-01-11T13:52:45.123Z,0.47
2019-01-11T13:55:32.852Z,0.60
2019-01-11T13:58:20.450Z,0.53
2019-01-11T14:01:08.428Z,0.30
2019-01-11T14:03:56.100Z,0.67
2019-01-11T14:06:43.341Z,0.53
2019-01-11T14:09:30.605Z,0.50
2019-01-11T14:12:17.759Z,0.50
2019-01-11T14:15:05.550Z,0.60
2019-01-11T14:17:53.473Z,0.57
2019-01-11T14:20:41.542Z,0.70
2019-01-11T14:23:29.306Z,0.70
2019-01-11T14:26:16.383Z,0.57
2019-01-11T14:29:04.275Z,0.50
2019-01-11T14:31:52.080Z,0.70
2019-01-11T14:34:39.838Z,0.37
2019-01-11T14:37:32.286Z,0.40
2019-01-11T14:40:16.607Z,0.50
2019-01-11T14:43:04.466Z,0.30
2019-01-11T14:45:52.276Z,0.80
2019-01-11T14:48:39.531Z,0.40
2019-01-11T14:51:26.791Z,0.70
2019-01-11T14:54:14.593Z,0.53
2019-01-11T14:57:02.438Z,0.40
2019-01-11T14:59:49.911Z,0.50
2019-01-11T15:02:37.765Z,0.50
2019-01-11T15:05:25.185Z,0.43
2019-01-11T15:08:12.908Z,0.57
2019-01-11T15:11:00.774Z,0.27
2019-01-11T15:13:48.674Z,0.40
2019-01-11T15:16:36.084Z,0.47
2019-01-11T15:19:23.706Z,0.30
2019-01-11T15:22:11.133Z,0.40
2019-01-11T15:24:59.041Z,0.30
2019-01-11T15:27:46.871Z,0.30
2019-01-11T15:30:34.388Z,0.20
2019-01-11T15:33:21.654Z,0.30
2019-01-11T15:36:09.137Z,0.60
2019-01-11T15:38:56.579Z,0.53
2019-01-11T15:41:44.356Z,0.40
2019-01-11T15:44:31.702Z,0.20
2019-01-11T15:47:19.051Z,0.30
2019-01-11T15:50:07.612Z,0.50
2019-01-11T15:52:55.206Z,0.30
2019-01-11T15:55:42.613Z,0.43
2019-01-11T15:58:29.983Z,0.50
2019-01-11T16:01:17.872Z,0.57
2019-01-11T16:04:10.032Z,0.40
2019-01-11T16:06:57.677Z,0.43
2019-01-11T16:09:57.211Z,0.30
2019-01-11T16:13:10.121Z,0.30
2019-01-11T16:16:26.913Z,0.30
2019-01-11T16:19:15.536Z,0.60
2019-01-11T16:22:03.536Z,0.50
2019-01-11T16:24:50.464Z,0.53
2019-01-11T16:27:38.589Z,0.43
2019-01-11T16:30:26.125Z,0.50
2019-01-11T16:33:14.823Z,0.40
2019-01-11T16:36:02.690Z,0.37
2019-01-11T16:38:51.363Z,0.30
2019-01-11T16:41:39.036Z,0.40
2019-01-11T16:44:26.545Z,0.70
2019-01-11T16:47:13.862Z,0.40
2019-01-11T16:50:01.736Z,0.40
2019-01-11T16:52:49.677Z,0.40
2019-01-11T16:55:37.054Z,0.40
2019-01-11T16:58:24.805Z,0.53
2019-01-11T17:01:13.070Z,0.23
2019-01-11T17:04:00.954Z,0.27
2019-01-11T17:06:48.761Z,0.30
2019-01-11T17:09:36.525Z,0.70
2019-01-11T17:12:23.716Z,0.47
2019-01-11T17:15:12.693Z,0.30
2019-01-11T17:18:00.699Z,0.50
2019-01-11T17:20:48.665Z,0.40
2019-01-11T17:23:36.177Z,0.33
2019-01-11T17:26:23.679Z,0.60
2019-01-11T17:29:11.858Z,0.60
2019-01-11T17:31:59.744Z,0.30
2019-01-11T17:34:47.309Z,0.50
2019-01-11T17:37:35.086Z,0.40
2019-01-11T17:40:22.683Z,0.50
2019-01-11T17:43:09.974Z,0.80
2019-01-11T17:45:57.614Z,0.30
2019-01-11T17:48:46.833Z,0.30
2019-01-11T17:51:34.844Z,0.37
2019-01-11T17:54:22.073Z,0.27
2019-01-11T17:57:09.523Z,0.40
2019-01-11T17:59:57.098Z,0.40
2019-01-11T18:02:45.125Z,0.50
2019-01-11T18:05:34.422Z,0.40
2019-01-11T18:08:22.196Z,0.33
2019-01-11T18:11:09.962Z,0.40
2019-01-11T18:13:57.341Z,0.30
2019-01-11T18:16:46.300Z,0.37
2019-01-11T18:19:34.178Z,0.33
2019-01-11T18:22:21.241Z,0.30
2019-01-11T18:25:10.090Z,0.50
2019-01-11T18:27:57.811Z,0.30
2019-01-11T18:30:45.732Z,0.50
2019-01-11T18:33:33.179Z,0.60
2019-01-11T18:36:21.028Z,0.60
2019-01-11T18:39:09.451Z,0.40
2019-01-11T18:41:56.749Z,0.30
2019-01-11T18:44:46.087Z,0.40
2019-01-11T18:47:35.218Z,0.37
2019-01-11T18:50:23.672Z,0.20
2019-01-11T18:53:13.861Z,0.40
2019-01-11T18:56:05.375Z,0.20
2019-01-11T18:58:49.158Z,0.30
2019-01-11T19:01:38.049Z,0.30
2019-01-11T19:04:26.707Z,0.40
2019-01-11T19:07:14.581Z,0.57
2019-01-11T19:10:02.167Z,0.30
2019-01-11T19:12:50.017Z,0.43
2019-01-11T19:15:38.158Z,0.40
2019-01-11T19:18:26.175Z,0.30
2019-01-11T19:21:13.893Z,0.20
2019-01-11T19:24:01.865Z,0.30
2019-01-11T19:26:49.196Z,0.40
2019-01-11T19:29:36.905Z,0.40
2019-01-11T19:32:25.681Z,0.20
2019-01-11T19:35:13.403Z,0.43
2019-01-11T19:38:01.514Z,0.40
2019-01-11T19:40:49.155Z,0.30
2019-01-11T19:43:36.681Z,0.30
2019-01-11T19:46:24.516Z,0.30
2019-01-11T19:49:12.272Z,0.40
2019-01-11T19:52:01.283Z,0.30
2019-01-11T19:54:48.494Z,0.40
2019-01-11T19:57:36.329Z,0.30
2019-01-11T20:00:25.259Z,0.30
2019-01-11T20:03:12.561Z,0.30
2019-01-11T20:05:59.936Z,0.40
2019-01-11T20:08:47.768Z,0.30
2019-01-11T20:11:34.923Z,0.30
2019-01-11T20:14:21.992Z,0.10
2019-01-11T20:17:14.060Z,0.30
2019-01-11T20:19:58.831Z,0.57
2019-01-11T20:22:47.064Z,0.40
2019-01-11T20:25:35.152Z,1.13
2019-01-11T20:28:22.864Z,0.40
2019-01-11T20:31:10.619Z,0.27
2019-01-11T20:33:58.068Z,0.30
2019-01-11T20:36:54.487Z,0.30
2019-01-11T20:39:41.410Z,0.30
2019-01-11T20:42:29.158Z,0.20
2019-01-11T20:45:17.901Z,0.40
2019-01-11T20:48:05.197Z,0.37
2019-01-11T20:50:52.839Z,0.37
2019-01-11T20:53:41.726Z,0.30
2019-01-11T20:56:31.379Z,0.37
2019-01-11T20:59:18.647Z,0.30
2019-01-11T21:02:06.461Z,0.10
2019-01-11T21:04:53.592Z,0.30
2019-01-11T21:07:41.724Z,0.40
2019-01-11T21:10:29.220Z,0.23
2019-01-11T21:13:16.893Z,0.20
2019-01-11T21:16:05.199Z,0.30
2019-01-11T21:18:53.141Z,0.40
2019-01-11T21:21:40.419Z,0.30
2019-01-11T21:24:27.634Z,0.27
2019-01-11T21:27:15.384Z,0.10
2019-01-11T21:30:03.189Z,0.63
2019-01-11T21:32:51.076Z,0.20
2019-01-11T21:35:38.574Z,0.30
2019-01-11T21:38:26.070Z,0.30
2019-01-11T21:41:13.616Z,0.40
2019-01-11T21:44:01.244Z,0.30
2019-01-11T21:46:49.200Z,2.00
2019-01-11T21:49:37.963Z,0.47
2019-01-11T21:52:26.876Z,0.40
2019-01-11T21:55:15.538Z,0.40
2019-01-11T21:58:03.192Z,0.50
2019-01-11T22:00:51.357Z,0.40
2019-01-11T22:03:39.257Z,0.60
2019-01-11T22:06:26.687Z,0.30
2019-01-11T22:09:14.096Z,0.50
2019-01-11T22:12:02.055Z,0.40
2019-01-11T22:14:49.804Z,0.40
2019-01-11T22:17:37.732Z,0.47
2019-01-11T22:20:25.508Z,0.37
2019-01-11T22:23:13.234Z,0.47
2019-01-11T22:26:00.748Z,0.80
2019-01-11T22:28:48.304Z,0.50
2019-01-11T22:31:35.305Z,0.43
2019-01-11T22:34:22.907Z,1.10
2019-01-11T22:37:10.790Z,0.50
2019-01-11T22:40:00.494Z,0.50
2019-01-11T22:42:47.733Z,0.40
2019-01-11T22:45:35.438Z,0.50
2019-01-11T22:48:22.984Z,0.43
2019-01-11T22:51:10.461Z,0.47
2019-01-11T22:53:58.149Z,0.40
2019-01-11T22:56:45.743Z,0.60
2019-01-11T22:59:35.386Z,0.47
2019-01-11T23:02:32.186Z,0.57
2019-01-11T23:05:19.744Z,0.50
2019-01-11T23:08:09.385Z,0.43
2019-01-11T23:11:25.304Z,0.50
2019-01-11T23:14:13.371Z,0.80
2019-01-11T23:17:19.103Z,0.50
2019-01-11T23:20:08.146Z,0.50
2019-01-11T23:22:56.451Z,0.50
2019-01-11T23:25:44.368Z,0.70
2019-01-11T23:28:32.158Z,0.60
2019-01-11T23:31:20.223Z,0.63
2019-01-11T23:34:08.035Z,0.50
2019-01-11T23:36:56.422Z,0.60
2019-01-11T23:39:44.053Z,0.50
2019-01-11T23:42:31.934Z,0.53
2019-01-11T23:45:19.558Z,0.50
2019-01-11T23:48:07.238Z,0.50
2019-01-11T23:50:55.225Z,0.50
2019-01-11T23:53:42.921Z,0.50
2019-01-11T23:56:30.393Z,0.40
2019-01-11T23:59:18.180Z,0.50
